KPSF/PSF METAR and TAF weather

Enter ICAO airport designator
Station Type Date Time Source
KPSF METAR 2021/04/13 07:54 UTC NOAA

KPSF 130754Z AUTO 00000KT 10SM BKN039 02/01 A2997 RMK AO2 SLP149 T00220011


Station Type Date Time Source
KPSF Decoded METAR 2021/04/13 07:54 UTC NOAA

PITTSFIELD MUNICIPAL AIRPORT , MA, United States (KPSF) 42-26N 073-17W 355M
Apr 13, 2021 - 03:54 AM EDT / 2021.04.13 0754 UTC
Wind: Calm:0
Visibility: 10 mile(s):0
Sky conditions: mostly cloudy
Temperature: 36.0 F (2.2 C)
Dew Point: 34.0 F (1.1 C)
Relative Humidity: 92%
Pressure (altimeter): 29.97 in. Hg (1014 hPa)
ob: KPSF 130754Z AUTO 00000KT 10SM BKN039 02/01 A2997 RMK AO2 SLP149 T00220011
cycle: 8

Station Type Date Time Source
KPSF TAF 2021/04/13 08:45 UTC NOAA

TAF
AMD KPSF 130744Z 1308/1406 00000KT P6SM BKN040
FM131300 35005KT P6SM BKN040
FM132200 VRB03KT P6SM SCT040 SCT100 SCT250

Example: see airport list